aviador You're here:

LFRT Decoded Metar

ST.-BRIEUC ARMOR in FRANCE
Report Time2017-08-21 13:30:00
UTC Time2017-08-21 14:00:53
Flight Rules lifr LIFR
Wind070° at 06 kt
W.Decomp.*RWY 06: 5.9 kt HW 1.2 kt RCW
W.Rank070° ranks 25
Current wind is below 070° avg. (6.6)
Visibility9999 m
Phenomena:N/A
Clouds:Overcast 004 Hf
Expected CloudBase > 400 ft AGL from Temp-Dew spread
Ceiling400 ft
Temp18°C (ISA +4)
Dew Point17°C (94% RH)
QNH1022 hPa
Density Alt860 ft
Elevation446 ft
Report Wrong Elevation
Raw Report
LFRT 211330Z AUTO 07006KT 040V100 9999 OVC004 18/17 Q1022=

Extra information for LFRT:More info

Metar Taf Metar & Taf Last 4 Metars F.Rules Stats Wind Profile Meteogram Temp Stats Airport Information Weather charts Add Link Nearby VenuesMetar ALERT Operation Metar Decoded Social comments